Time;durP1;ratioP1;P1;durP2;ratioP2;P2;SDS_P1;SDS_P2;PMS_P1;PMS_P2;Temp;Humidity;BMP_temperature;BMP_pressure;BME280_temperature;BME280_humidity;BME280_pressure;Samples;Min_cycle;Max_cycle;Signal;HPM_P1;HPM_P2
2023/06/08 00:02:28;;;;;;;;;;;;;;;18.63;58.44;98110.09;7384618;19;19923;-76
2023/06/08 00:04:57;;;;;;;;;;;;;;;18.58;58.41;98111.78;7381606;19;19919;-79
2023/06/08 00:07:24;;;;;;;;;;;;;;;18.54;59.51;98102.53;7380044;19;19938;-78
2023/06/08 00:09:51;;;;;;;;;;;;;;;18.46;57.57;98100.06;7375165;19;19925;-79
2023/06/08 00:12:18;;;;;;;;;;;;;;;18.24;57.50;98100.38;7382078;19;19936;-79
2023/06/08 00:14:45;;;;;;;;;;;;;;;18.11;57.93;98100.41;7379504;19;20305;-79
2023/06/08 00:17:12;;;;;;;;;;;;;;;18.13;59.73;98109.06;7377607;19;20407;-79
2023/06/08 00:19:39;;;;;;;;;;;;;;;18.12;59.47;98105.56;7381347;19;19933;-78
2023/06/08 00:22:08;;;;;;;;;;;;;;;18.14;59.21;98100.00;7376087;19;20006;-78
2023/06/08 00:24:35;;;;;;;;;;;;;;;18.15;58.73;98105.16;7376709;19;20652;-78
2023/06/08 00:27:03;;;;;;;;;;;;;;;18.13;58.76;98099.16;7373903;19;19927;-77
2023/06/08 00:29:29;;;;;;;;;;;;;;;18.08;58.47;98098.16;7378337;19;19919;-78
2023/06/08 00:31:56;;;;;;;;;;;;;;;17.78;59.17;98095.94;7372535;19;19919;-77
2023/06/08 00:34:23;;;;;;;;;;;;;;;17.72;59.53;98096.75;7377590;19;19933;-78
2023/06/08 00:36:50;;;;;;;;;;;;;;;17.73;60.36;98103.78;7380156;19;19918;-76
2023/06/08 00:39:17;;;;;;;;;;;;;;;17.81;61.78;98092.88;7376336;19;19915;-78
2023/06/08 00:41:44;;;;;;;;;;;;;;;17.85;61.67;98099.47;7373477;19;19934;-77
2023/06/08 00:44:11;;;;;;;;;;;;;;;17.88;61.79;98098.22;7375865;19;19911;-78
2023/06/08 00:46:39;;;;;;;;;;;;;;;17.86;61.75;98103.78;7373535;19;19925;-76
2023/06/08 00:49:07;;;;;;;;;;;;;;;17.87;61.90;98105.41;7372649;19;19925;-79
2023/06/08 00:51:36;;;;;;;;;;;;;;;17.89;61.48;98103.34;7372965;19;19932;-78
2023/06/08 00:54:02;;;;;;;;;;;;;;;17.81;60.39;98100.09;7381115;19;19922;-76
2023/06/08 00:56:31;;;;;;;;;;;;;;;17.78;61.21;98095.94;7383042;19;19914;-78
2023/06/08 00:59:00;;;;;;;;;;;;;;;17.86;62.55;98098.44;7382196;19;19919;-76
2023/06/08 01:01:29;;;;;;;;;;;;;;;17.88;62.43;98107.06;7382814;19;19926;-78
2023/06/08 01:04:05;;;;;;;;;;;;;;;17.86;62.25;98103.78;7379140;19;19925;-76
2023/06/08 01:06:44;;;;;;;;;;;;;;;17.70;60.76;98094.31;7378310;19;20346;-78
2023/06/08 01:09:21;;;;;;;;;;;;;;;17.72;61.21;98099.44;7380550;19;19997;-76
2023/06/08 01:12:00;;;;;;;;;;;;;;;17.72;61.29;98096.75;7378533;19;20770;-77
2023/06/08 01:14:41;;;;;;;;;;;;;;;17.74;61.80;98095.53;7383303;19;19919;-78
2023/06/08 01:17:09;;;;;;;;;;;;;;;17.73;62.84;98088.53;7382891;19;19922;-77
2023/06/08 01:19:39;;;;;;;;;;;;;;;17.74;62.57;98089.34;7374140;19;19927;-77
2023/06/08 01:22:10;;;;;;;;;;;;;;;17.72;61.65;98089.56;7372759;19;19914;-78
2023/06/08 01:24:38;;;;;;;;;;;;;;;17.70;62.35;98083.59;7377952;19;19946;-77
2023/06/08 01:27:09;;;;;;;;;;;;;;;17.61;61.25;98084.84;7381456;19;19957;-77
2023/06/08 01:29:40;;;;;;;;;;;;;;;17.62;62.28;98088.38;7382115;19;20242;-77
2023/06/08 01:32:07;;;;;;;;;;;;;;;17.63;62.16;98092.66;7382564;19;19931;-79
2023/06/08 01:34:34;;;;;;;;;;;;;;;17.55;61.90;98085.69;7379691;19;19922;-77
2023/06/08 01:37:20;;;;;;;;;;;;;;;17.48;61.79;98090.19;7384257;19;19922;-76
2023/06/08 01:39:52;;;;;;;;;;;;;;;17.47;62.28;98089.38;7377573;19;20260;-78
2023/06/08 01:42:19;;;;;;;;;;;;;;;17.47;63.28;98086.72;7373743;19;19927;-80
2023/06/08 01:44:50;;;;;;;;;;;;;;;17.50;62.43;98085.47;7380733;19;20260;-76
2023/06/08 01:47:17;;;;;;;;;;;;;;;17.35;62.36;98085.69;7380826;19;19934;-78
2023/06/08 01:49:43;;;;;;;;;;;;;;;17.30;62.99;98083.66;7379875;19;19998;-76
2023/06/08 01:52:10;;;;;;;;;;;;;;;17.30;63.26;98074.81;7378723;19;20263;-77
2023/06/08 01:54:37;;;;;;;;;;;;;;;17.20;62.84;98082.41;7380856;19;19990;-76
2023/06/08 01:57:05;;;;;;;;;;;;;;;17.10;62.62;98072.94;7376952;19;19929;-79
2023/06/08 01:59:38;;;;;;;;;;;;;;;16.99;62.93;98076.22;7381591;19;19918;-77
2023/06/08 02:02:05;;;;;;;;;;;;;;;17.03;63.13;98069.44;7377356;19;19915;-78
2023/06/08 02:04:32;;;;;;;;;;;;;;;17.04;62.97;98068.41;7379953;19;19948;-77
2023/06/08 02:07:01;;;;;;;;;;;;;;;17.18;63.65;98071.09;7384151;19;19930;-78
2023/06/08 02:09:28;;;;;;;;;;;;;;;17.23;63.83;98072.13;7385930;19;20535;-79
2023/06/08 02:12:06;;;;;;;;;;;;;;;17.24;63.80;98075.63;7381088;19;19990;-79
2023/06/08 02:14:33;;;;;;;;;;;;;;;17.13;63.09;98065.53;7382670;19;20345;-79
2023/06/08 02:17:03;;;;;;;;;;;;;;;17.09;63.52;98065.97;7386336;19;19929;-77
2023/06/08 02:19:33;;;;;;;;;;;;;;;17.11;63.85;98073.75;7384964;19;19915;-77
2023/06/08 02:22:00;;;;;;;;;;;;;;;17.10;64.33;98078.28;7373327;19;19922;-76
2023/06/08 02:24:27;;;;;;;;;;;;;;;17.09;63.54;98082.00;7381402;19;19929;-79
2023/06/08 02:26:54;;;;;;;;;;;;;;;17.09;63.96;98078.50;7383627;19;20315;-79
2023/06/08 02:29:21;;;;;;;;;;;;;;;16.99;63.63;98080.75;7379531;19;19945;-77
2023/06/08 02:31:49;;;;;;;;;;;;;;;17.01;64.20;98084.88;7379332;19;19925;-79
2023/06/08 02:34:15;;;;;;;;;;;;;;;17.01;64.63;98084.88;7380381;19;20358;-77
2023/06/08 02:36:42;;;;;;;;;;;;;;;16.97;63.57;98091.63;7384821;19;19914;-77
2023/06/08 02:39:09;;;;;;;;;;;;;;;16.84;63.63;98083.59;7380070;19;19982;-77
2023/06/08 02:41:37;;;;;;;;;;;;;;;16.83;64.50;98077.44;7377566;19;19963;-78
2023/06/08 02:44:03;;;;;;;;;;;;;;;16.84;64.82;98076.41;7383212;19;19978;-77
2023/06/08 02:46:32;;;;;;;;;;;;;;;16.84;65.33;98073.72;7379406;19;19922;-76
2023/06/08 02:49:00;;;;;;;;;;;;;;;16.85;65.16;98074.53;7377972;19;19923;-77
2023/06/08 02:51:27;;;;;;;;;;;;;;;16.82;64.87;98077.63;7382559;19;19926;-79
2023/06/08 02:53:53;;;;;;;;;;;;;;;16.80;64.78;98077.03;7383555;19;19938;-77
2023/06/08 02:56:21;;;;;;;;;;;;;;;16.78;64.70;98074.53;7379204;19;19935;-79
2023/06/08 02:58:48;;;;;;;;;;;;;;;16.76;65.14;98071.22;7379975;19;19922;-76
2023/06/08 03:01:15;;;;;;;;;;;;;;;16.76;65.40;98081.91;7374522;19;20216;-77
2023/06/08 03:04:12;;;;;;;;;;;;;;;16.73;65.19;98084.97;7371568;19;20391;-76
2023/06/08 03:06:46;;;;;;;;;;;;;;;16.72;64.98;98077.16;7379251;19;20007;-77
2023/06/08 03:09:14;;;;;;;;;;;;;;;16.74;65.36;98083.13;7377306;19;19927;-79
2023/06/08 03:11:47;;;;;;;;;;;;;;;16.68;65.31;98084.75;7374699;19;19929;-76
2023/06/08 03:14:16;;;;;;;;;;;;;;;16.60;64.32;98082.28;7375822;19;19930;-77
2023/06/08 03:16:44;;;;;;;;;;;;;;;16.62;65.55;98082.91;7380677;19;19923;-77
2023/06/08 03:19:12;;;;;;;;;;;;;;;16.62;65.87;98081.06;7373144;19;19919;-76
2023/06/08 03:21:41;;;;;;;;;;;;;;;16.40;64.71;98084.88;7371526;19;19941;-78
2023/06/08 03:24:10;;;;;;;;;;;;;;;16.18;65.09;98085.00;7376490;19;19936;-76
2023/06/08 03:26:38;;;;;;;;;;;;;;;16.12;65.96;98080.47;7378884;19;19929;-78
2023/06/08 03:29:07;;;;;;;;;;;;;;;16.15;66.10;98079.25;7375251;19;19998;-77
2023/06/08 03:31:36;;;;;;;;;;;;;;;16.00;66.00;98082.03;7378958;19;19919;-77
2023/06/08 03:34:06;;;;;;;;;;;;;;;15.96;66.15;98080.81;7381231;19;19950;-78
2023/06/08 03:36:38;;;;;;;;;;;;;;;16.07;67.00;98082.91;7378949;19;19919;-77
2023/06/08 03:39:15;;;;;;;;;;;;;;;16.09;66.59;98088.88;7376532;19;19930;-78
2023/06/08 03:41:41;;;;;;;;;;;;;;;16.12;66.11;98090.31;7372588;19;20287;-77
2023/06/08 03:44:10;;;;;;;;;;;;;;;16.16;66.32;98087.03;7372133;19;20057;-75
2023/06/08 03:46:36;;;;;;;;;;;;;;;16.18;66.21;98089.53;7379046;19;19936;-77
2023/06/08 03:49:04;;;;;;;;;;;;;;;16.27;66.13;98093.66;7376209;19;19919;-78
2023/06/08 03:51:32;;;;;;;;;;;;;;;16.26;65.88;98092.00;7375083;19;19956;-76
2023/06/08 03:53:58;;;;;;;;;;;;;;;16.30;66.21;98095.09;7373937;19;19919;-77
2023/06/08 03:56:26;;;;;;;;;;;;;;;16.36;66.10;98094.31;7377277;19;19919;-78
2023/06/08 03:58:56;;;;;;;;;;;;;;;16.38;66.16;98092.28;7376744;19;19914;-77
2023/06/08 04:01:23;;;;;;;;;;;;;;;16.29;65.32;98096.13;7372855;19;19926;-78
2023/06/08 04:03:52;;;;;;;;;;;;;;;16.34;65.86;98096.38;7378066;19;20513;-76
2023/06/08 04:06:19;;;;;;;;;;;;;;;16.41;65.58;98084.69;7375316;19;20341;-79
2023/06/08 04:08:46;;;;;;;;;;;;;;;16.46;65.63;98089.44;7375559;19;19915;-77
2023/06/08 04:11:13;;;;;;;;;;;;;;;16.46;65.60;98092.09;7370433;19;19922;-78
2023/06/08 04:13:40;;;;;;;;;;;;;;;16.53;65.82;98089.44;7375442;19;19915;-78
2023/06/08 04:16:11;;;;;;;;;;;;;;;16.57;65.34;98096.84;7374910;19;19923;-76
2023/06/08 04:18:42;;;;;;;;;;;;;;;16.59;64.85;98092.16;7372363;19;20282;-77
2023/06/08 04:21:12;;;;;;;;;;;;;;;16.59;64.75;98092.16;7373951;19;19932;-77
2023/06/08 04:23:40;;;;;;;;;;;;;;;16.67;65.54;98091.16;7377749;19;20359;-76
2023/06/08 04:26:08;;;;;;;;;;;;;;;16.75;66.04;98093.63;7370794;19;19942;-77
2023/06/08 04:28:35;;;;;;;;;;;;;;;16.82;66.81;98096.31;7378786;19;20388;-76
2023/06/08 04:31:04;;;;;;;;;;;;;;;16.88;66.88;98096.34;7380973;19;19918;-77
2023/06/08 04:33:33;;;;;;;;;;;;;;;16.89;66.80;98092.66;7381929;19;19950;-76
2023/06/08 04:36:03;;;;;;;;;;;;;;;16.92;66.58;98091.41;7384293;19;19931;-76
2023/06/08 04:38:30;;;;;;;;;;;;;;;16.91;65.58;98092.47;7380526;19;19927;-76
2023/06/08 04:40:56;;;;;;;;;;;;;;;16.86;64.52;98105.59;7380546;19;19922;-77
2023/06/08 04:43:30;;;;;;;;;;;;;;;16.83;64.22;98111.34;7381543;19;19918;-77
2023/06/08 04:46:07;;;;;;;;;;;;;;;16.86;65.57;98109.09;7380763;19;19910;-76
2023/06/08 04:48:37;;;;;;;;;;;;;;;16.86;63.99;98121.63;7382449;19;19939;-77
2023/06/08 04:51:04;;;;;;;;;;;;;;;16.89;64.90;98111.34;7381694;19;19926;-77
2023/06/08 04:53:34;;;;;;;;;;;;;;;16.96;65.47;98108.69;7385424;19;19919;-76
2023/06/08 04:56:02;;;;;;;;;;;;;;;17.04;65.27;98118.38;7378358;19;19922;-77
2023/06/08 04:58:30;;;;;;;;;;;;;;;17.09;66.04;98119.41;7382529;19;20314;-79
2023/06/08 05:00:56;;;;;;;;;;;;;;;17.11;65.06;98125.38;7377196;19;20313;-77
2023/06/08 05:03:24;;;;;;;;;;;;;;;17.16;64.65;98121.25;7382800;19;20284;-78
2023/06/08 05:05:51;;;;;;;;;;;;;;;17.06;63.77;98125.16;7382585;19;20020;-79
2023/06/08 05:08:17;;;;;;;;;;;;;;;16.94;64.35;98126.78;7382806;19;20333;-78
2023/06/08 05:10:44;;;;;;;;;;;;;;;16.87;64.99;98125.94;7383600;19;20560;-76
2023/06/08 05:13:11;;;;;;;;;;;;;;;16.84;65.26;98132.50;7378653;19;19922;-77
2023/06/08 05:15:38;;;;;;;;;;;;;;;16.94;66.48;98128.63;7381847;19;19919;-77
2023/06/08 05:18:04;;;;;;;;;;;;;;;16.90;65.57;98128.19;7374961;19;19911;-77
2023/06/08 05:20:31;;;;;;;;;;;;;;;16.72;65.61;98130.59;7383702;19;19918;-77
2023/06/08 05:22:58;;;;;;;;;;;;;;;16.38;66.88;98133.16;7382084;19;20361;-76
2023/06/08 05:25:26;;;;;;;;;;;;;;;16.34;67.31;98128.41;7383818;19;19937;-77
2023/06/08 05:27:53;;;;;;;;;;;;;;;16.34;66.85;98136.41;7383665;19;20289;-77
2023/06/08 05:30:19;;;;;;;;;;;;;;;16.42;67.06;98136.22;7382485;19;20333;-77
2023/06/08 05:32:46;;;;;;;;;;;;;;;16.54;67.72;98128.50;7380117;19;19926;-77
2023/06/08 05:35:13;;;;;;;;;;;;;;;16.65;68.68;98133.25;7378490;19;19943;-76
2023/06/08 05:37:39;;;;;;;;;;;;;;;16.78;68.63;98122.63;7380762;19;19915;-76
2023/06/08 05:40:07;;;;;;;;;;;;;;;16.84;66.58;98129.00;7377689;19;19914;-78
2023/06/08 05:42:34;;;;;;;;;;;;;;;16.95;67.52;98124.94;7384805;19;20324;-77
2023/06/08 05:45:01;;;;;;;;;;;;;;;17.10;66.61;98123.72;7384518;19;19986;-77
2023/06/08 05:47:28;;;;;;;;;;;;;;;17.27;66.88;98118.81;7383976;19;19958;-77
2023/06/08 05:50:00;;;;;;;;;;;;;;;17.38;65.04;98117.38;7376650;19;19935;-77
2023/06/08 05:52:27;;;;;;;;;;;;;;;17.51;64.39;98117.38;7379443;19;19914;-77
2023/06/08 05:54:54;;;;;;;;;;;;;;;17.61;64.50;98111.59;7383651;19;19939;-77
2023/06/08 05:57:24;;;;;;;;;;;;;;;17.65;63.98;98106.66;7380410;19;19915;-78
2023/06/08 05:59:51;;;;;;;;;;;;;;;17.81;64.52;98110.78;7380703;19;19946;-77
2023/06/08 06:02:20;;;;;;;;;;;;;;;17.87;64.11;98109.94;7380129;19;20245;-77
2023/06/08 06:04:47;;;;;;;;;;;;;;;17.95;63.80;98107.03;7380256;19;19982;-78
2023/06/08 06:07:14;;;;;;;;;;;;;;;18.06;63.60;98109.09;7379959;19;19918;-77
2023/06/08 06:09:41;;;;;;;;;;;;;;;18.16;63.06;98108.63;7383205;19;19923;-77
2023/06/08 06:12:07;;;;;;;;;;;;;;;18.28;62.22;98101.59;7377304;19;19939;-78
2023/06/08 06:14:48;;;;;;;;;;;;;;;18.45;62.25;98101.94;7383177;19;19918;-77
2023/06/08 06:17:15;;;;;;;;;;;;;;;18.59;61.57;98100.03;7382177;19;19927;-75
2023/06/08 06:19:42;;;;;;;;;;;;;;;18.69;61.31;98107.59;7380047;19;20441;-76
2023/06/08 06:22:09;;;;;;;;;;;;;;;18.77;59.87;98102.00;7375229;19;19919;-77
2023/06/08 06:24:37;;;;;;;;;;;;;;;18.80;60.70;98101.56;7380185;19;20362;-75
2023/06/08 06:27:08;;;;;;;;;;;;;;;18.87;60.12;98105.03;7383274;19;19943;-76
2023/06/08 06:29:34;;;;;;;;;;;;;;;18.94;59.89;98105.03;7383449;19;19918;-76
2023/06/08 06:32:01;;;;;;;;;;;;;;;19.02;59.91;98107.44;7381434;19;19992;-77
2023/06/08 06:34:28;;;;;;;;;;;;;;;19.23;60.26;98108.94;7378589;19;19923;-77
2023/06/08 06:36:56;;;;;;;;;;;;;;;19.39;60.99;98096.84;7379876;19;19941;-76
2023/06/08 06:39:23;;;;;;;;;;;;;;;19.49;59.64;98086.44;7376280;19;20260;-80
2023/06/08 06:41:50;;;;;;;;;;;;;;;19.69;60.66;98086.28;7377814;19;19925;-78
2023/06/08 06:44:20;;;;;;;;;;;;;;;19.74;59.46;98092.63;7381500;19;20698;-82
2023/06/08 06:46:46;;;;;;;;;;;;;;;19.83;59.30;98092.38;7384148;19;19922;-78
2023/06/08 06:49:13;;;;;;;;;;;;;;;19.82;59.37;98088.00;7379203;19;19919;-77
2023/06/08 06:51:41;;;;;;;;;;;;;;;19.95;60.38;98090.56;7380709;19;19925;-77
2023/06/08 06:54:07;;;;;;;;;;;;;;;19.93;58.38;98092.63;7379270;19;19915;-75
2023/06/08 06:56:34;;;;;;;;;;;;;;;20.07;59.98;98093.34;7376493;19;19915;-76
2023/06/08 06:59:02;;;;;;;;;;;;;;;20.08;59.26;98087.72;7374739;19;19930;-79
2023/06/08 07:01:31;;;;;;;;;;;;;;;20.17;59.19;98091.78;7378571;19;19923;-78
2023/06/08 07:03:58;;;;;;;;;;;;;;;20.23;59.37;98091.91;7384022;19;20558;-78
2023/06/08 07:06:26;;;;;;;;;;;;;;;20.26;57.27;98092.28;7384184;19;19919;-76
2023/06/08 07:08:53;;;;;;;;;;;;;;;20.25;56.94;98095.19;7383686;19;20295;-77
2023/06/08 07:11:19;;;;;;;;;;;;;;;20.27;57.89;98087.72;7379746;19;20337;-79
2023/06/08 07:13:46;;;;;;;;;;;;;;;20.38;58.17;98092.38;7376634;19;19914;-79
2023/06/08 07:16:13;;;;;;;;;;;;;;;20.45;58.44;98092.25;7376443;19;19922;-77
2023/06/08 07:18:40;;;;;;;;;;;;;;;20.46;55.53;98088.53;7385826;19;19923;-76
2023/06/08 07:21:06;;;;;;;;;;;;;;;20.41;56.58;98083.84;7403710;19;19923;-76
2023/06/08 07:23:34;;;;;;;;;;;;;;;20.51;57.07;98094.88;7408078;19;20347;-77
2023/06/08 07:26:20;;;;;;;;;;;;;;;20.53;57.10;98090.06;7398273;19;19925;-79
2023/06/08 07:28:57;;;;;;;;;;;;;;;20.61;55.46;98091.66;7405071;19;19919;-75
2023/06/08 07:31:26;;;;;;;;;;;;;;;20.61;55.98;98089.78;7399001;19;19919;-79
2023/06/08 07:33:54;;;;;;;;;;;;;;;20.72;57.26;98090.06;7396538;19;19910;-78
2023/06/08 07:36:22;;;;;;;;;;;;;;;20.58;55.64;98092.94;7388758;19;19941;-77
2023/06/08 07:38:50;;;;;;;;;;;;;;;20.65;55.05;98084.81;7377854;19;19922;-77
2023/06/08 07:41:17;;;;;;;;;;;;;;;20.76;54.94;98089.38;7377673;19;20120;-79
2023/06/08 07:43:44;;;;;;;;;;;;;;;20.82;53.33;98093.03;7380546;19;19982;-79
2023/06/08 07:46:11;;;;;;;;;;;;;;;20.90;54.13;98092.72;7373862;19;19926;-77
2023/06/08 07:48:38;;;;;;;;;;;;;;;21.07;55.30;98092.06;7377256;19;19919;-77
2023/06/08 07:51:05;;;;;;;;;;;;;;;21.12;54.03;98098.41;7377868;19;19937;-77
2023/06/08 07:53:38;;;;;;;;;;;;;;;21.24;52.17;98098.41;7378924;19;19919;-79
2023/06/08 07:56:05;;;;;;;;;;;;;;;21.17;55.20;98103.91;7377355;19;19930;-78
2023/06/08 07:58:31;;;;;;;;;;;;;;;21.16;54.14;98101.44;7380602;19;19927;-80
2023/06/08 08:00:59;;;;;;;;;;;;;;;21.10;53.73;98107.75;7380133;19;20348;-77
2023/06/08 08:03:26;;;;;;;;;;;;;;;21.10;53.86;98107.75;7377004;19;19933;-80
2023/06/08 08:05:53;;;;;;;;;;;;;;;21.29;52.23;98097.72;7391778;19;19915;-79
2023/06/08 08:08:20;;;;;;;;;;;;;;;21.46;52.46;98096.03;7387563;19;19923;-80
2023/06/08 08:10:47;;;;;;;;;;;;;;;21.44;53.54;98096.25;7389727;19;19922;-79
2023/06/08 08:13:14;;;;;;;;;;;;;;;21.59;52.38;98103.88;7386511;19;19922;-79
2023/06/08 08:15:40;;;;;;;;;;;;;;;21.74;52.88;98102.59;7384236;19;19926;-77
2023/06/08 08:18:13;;;;;;;;;;;;;;;21.61;52.29;98095.56;7387565;19;20388;-79
2023/06/08 08:20:40;;;;;;;;;;;;;;;21.61;51.24;98099.06;7384091;19;19968;-76
2023/06/08 08:23:10;;;;;;;;;;;;;;;21.71;51.14;98106.56;7388944;19;20344;-77
2023/06/08 08:25:36;;;;;;;;;;;;;;;21.79;50.64;98100.81;7391087;19;19990;-80
2023/06/08 08:28:03;;;;;;;;;;;;;;;21.58;51.31;98096.03;7386864;19;19915;-78
2023/06/08 08:30:30;;;;;;;;;;;;;;;21.76;50.71;98095.91;7386166;19;19940;-78
2023/06/08 08:32:57;;;;;;;;;;;;;;;21.83;50.36;98090.44;7388657;19;19919;-78
2023/06/08 08:35:28;;;;;;;;;;;;;;;22.01;50.96;98094.84;7379356;19;20360;-80
2023/06/08 08:37:56;;;;;;;;;;;;;;;22.12;51.13;98096.72;7383107;19;19914;-79
2023/06/08 08:40:23;;;;;;;;;;;;;;;22.14;49.39;98094.56;7384155;19;19919;-77
2023/06/08 08:42:53;;;;;;;;;;;;;;;22.18;50.30;98100.31;7387454;19;20255;-79
2023/06/08 08:45:21;;;;;;;;;;;;;;;22.07;51.63;98091.22;7383440;19;19922;-80
2023/06/08 08:47:53;;;;;;;;;;;;;;;22.25;51.80;98101.03;7392626;19;20601;-77
2023/06/08 08:50:20;;;;;;;;;;;;;;;22.35;50.66;98098.53;7382547;19;19934;-78
2023/06/08 08:52:48;;;;;;;;;;;;;;;22.16;50.24;98103.25;7383339;19;19998;-77
2023/06/08 08:55:16;;;;;;;;;;;;;;;22.31;50.22;98102.78;7378975;19;19982;-77
2023/06/08 08:58:00;;;;;;;;;;;;;;;22.40;49.68;98104.03;7389467;19;19914;-77
2023/06/08 09:00:27;;;;;;;;;;;;;;;22.48;49.49;98100.16;7386639;19;19990;-79
2023/06/08 09:02:54;;;;;;;;;;;;;;;22.53;48.54;98094.88;7391342;19;19919;-78
2023/06/08 09:05:21;;;;;;;;;;;;;;;22.65;49.42;98098.34;7384803;19;19930;-80
2023/06/08 09:07:48;;;;;;;;;;;;;;;22.77;48.40;98104.50;7390777;19;19922;-77
2023/06/08 09:10:19;;;;;;;;;;;;;;;22.86;47.94;98098.75;7379962;19;19923;-79
2023/06/08 09:12:46;;;;;;;;;;;;;;;22.58;47.72;98095.78;7386766;19;19922;-77
2023/06/08 09:15:16;;;;;;;;;;;;;;;22.79;45.82;98093.47;7378226;19;19919;-75
2023/06/08 09:17:44;;;;;;;;;;;;;;;22.91;45.01;98096.13;7386891;19;19925;-78
2023/06/08 09:20:15;;;;;;;;;;;;;;;22.97;47.06;98095.19;7380548;19;19937;-77
2023/06/08 09:22:43;;;;;;;;;;;;;;;22.82;47.90;98093.00;7387505;19;19927;-76
2023/06/08 09:25:09;;;;;;;;;;;;;;;23.04;45.78;98087.78;7387745;19;19995;-80
2023/06/08 09:27:37;;;;;;;;;;;;;;;23.28;46.35;98076.84;7383541;19;19915;-78
2023/06/08 09:30:20;;;;;;;;;;;;;;;23.40;46.93;98072.16;7386524;19;19946;-77
2023/06/08 09:32:47;;;;;;;;;;;;;;;23.45;45.68;98072.22;7388247;19;19922;-79
2023/06/08 09:35:14;;;;;;;;;;;;;;;23.50;47.20;98082.31;7379228;19;20019;-78
2023/06/08 09:37:41;;;;;;;;;;;;;;;23.75;45.22;98079.19;7384935;19;19919;-78
2023/06/08 09:40:08;;;;;;;;;;;;;;;23.65;45.13;98077.13;7389039;19;19951;-76
2023/06/08 09:42:45;;;;;;;;;;;;;;;23.74;44.00;98074.84;7381645;19;19915;-78
2023/06/08 09:45:14;;;;;;;;;;;;;;;24.15;42.68;98068.13;7386309;19;19943;-78
2023/06/08 09:47:42;;;;;;;;;;;;;;;24.36;42.62;98066.50;7390204;19;20021;-79
2023/06/08 09:50:09;;;;;;;;;;;;;;;24.17;44.07;98059.75;7386719;19;19919;-79
2023/06/08 09:52:37;;;;;;;;;;;;;;;24.56;44.97;98057.81;7385104;19;20000;-80
2023/06/08 09:55:04;;;;;;;;;;;;;;;24.31;44.43;98061.84;7384579;19;19911;-79
2023/06/08 09:57:35;;;;;;;;;;;;;;;24.53;43.44;98050.19;7383528;19;19919;-77
2023/06/08 10:00:14;;;;;;;;;;;;;;;24.93;42.03;98051.69;7383487;19;19922;-80
2023/06/08 10:02:41;;;;;;;;;;;;;;;25.07;41.48;98043.97;7389071;19;19929;-79
2023/06/08 10:05:12;;;;;;;;;;;;;;;25.39;41.36;98038.56;7387096;19;19923;-79
2023/06/08 10:07:39;;;;;;;;;;;;;;;26.03;41.45;98037.63;7390230;19;19926;-77
2023/06/08 10:10:11;;;;;;;;;;;;;;;25.48;41.90;98028.06;7387906;19;19919;-78
2023/06/08 10:12:38;;;;;;;;;;;;;;;25.99;40.73;98036.53;7384546;19;19921;-80
2023/06/08 10:15:05;;;;;;;;;;;;;;;26.27;39.84;98033.38;7383615;19;19925;-78
2023/06/08 10:17:35;;;;;;;;;;;;;;;26.12;39.60;98033.34;7384149;19;19915;-77
2023/06/08 10:20:03;;;;;;;;;;;;;;;26.07;38.28;98038.72;7386032;19;19926;-80
2023/06/08 10:22:30;;;;;;;;;;;;;;;26.42;38.25;98039.94;7388224;19;19927;-80
2023/06/08 10:24:56;;;;;;;;;;;;;;;26.69;37.71;98032.41;7387203;19;19979;-77
2023/06/08 10:27:35;;;;;;;;;;;;;;;26.82;37.87;98033.00;7381986;19;19951;-80
2023/06/08 10:30:04;;;;;;;;;;;;;;;26.85;37.75;98025.13;7386684;19;19923;-81
2023/06/08 10:32:31;;;;;;;;;;;;;;;26.81;36.91;98028.66;7383184;19;19927;-79
2023/06/08 10:34:58;;;;;;;;;;;;;;;26.52;38.79;98026.44;7382205;19;20037;-80
2023/06/08 10:37:28;;;;;;;;;;;;;;;26.55;38.79;98023.19;7383533;19;19923;-81
2023/06/08 10:39:56;;;;;;;;;;;;;;;26.18;39.14;98007.84;7388509;19;19931;-78
2023/06/08 10:42:23;;;;;;;;;;;;;;;26.13;40.07;98012.44;7384732;19;20435;-78
2023/06/08 10:44:52;;;;;;;;;;;;;;;25.81;39.74;98006.03;7391085;19;19934;-82
2023/06/08 10:47:19;;;;;;;;;;;;;;;25.51;40.32;98000.44;7388579;19;19930;-80
2023/06/08 10:49:46;;;;;;;;;;;;;;;25.34;40.52;98000.63;7383460;19;19915;-80
2023/06/08 10:52:20;;;;;;;;;;;;;;;25.36;41.80;97999.28;7376665;19;19919;-79
2023/06/08 10:54:57;;;;;;;;;;;;;;;25.50;41.27;97998.81;7380662;19;19911;-79
2023/06/08 10:57:34;;;;;;;;;;;;;;;25.54;40.59;98000.75;7377489;19;19926;-82
2023/06/08 11:00:04;;;;;;;;;;;;;;;25.67;41.13;97999.44;7384131;19;19914;-79
2023/06/08 11:02:31;;;;;;;;;;;;;;;25.65;41.18;98001.63;7382657;19;19925;-82
2023/06/08 11:04:58;;;;;;;;;;;;;;;25.76;40.59;97995.19;7381694;19;19923;-79
2023/06/08 11:07:25;;;;;;;;;;;;;;;25.54;41.06;97991.78;7375555;19;21234;-76
2023/06/08 11:09:52;;;;;;;;;;;;;;;25.71;40.49;97992.44;7381421;19;19921;-79
2023/06/08 11:12:19;;;;;;;;;;;;;;;25.72;41.60;97994.06;7376094;19;19942;-81
2023/06/08 11:14:47;;;;;;;;;;;;;;;25.64;41.14;97991.84;7379162;19;19915;-79
2023/06/08 11:17:13;;;;;;;;;;;;;;;25.70;40.93;97988.13;7387114;19;19926;-78
2023/06/08 11:19:40;;;;;;;;;;;;;;;25.70;41.81;97990.81;7383917;19;19921;-80
2023/06/08 11:22:07;;;;;;;;;;;;;;;25.89;41.00;97987.69;7384683;19;20277;-80
2023/06/08 11:24:34;;;;;;;;;;;;;;;25.71;42.33;97978.09;7373613;19;20648;-78
2023/06/08 11:27:01;;;;;;;;;;;;;;;25.60;42.61;97978.03;7379813;19;19923;-77
2023/06/08 11:29:31;;;;;;;;;;;;;;;25.43;40.96;97968.44;7382892;19;20303;-79
2023/06/08 11:32:10;;;;;;;;;;;;;;;25.47;41.02;97964.16;7380171;19;19939;-78
2023/06/08 11:34:37;;;;;;;;;;;;;;;25.61;41.71;97965.28;7375192;19;19923;-77
2023/06/08 11:37:04;;;;;;;;;;;;;;;25.60;40.63;97958.25;7382098;19;20396;-79
2023/06/08 11:39:33;;;;;;;;;;;;;;;25.53;40.85;97955.78;7380142;19;19922;-85
2023/06/08 11:42:00;;;;;;;;;;;;;;;25.68;40.96;97955.03;7378635;19;19919;-78
2023/06/08 11:44:27;;;;;;;;;;;;;;;25.68;40.86;97952.34;7383804;19;19966;-79
2023/06/08 11:46:54;;;;;;;;;;;;;;;25.63;41.00;97949.59;7385147;19;20245;-78
2023/06/08 11:49:21;;;;;;;;;;;;;;;25.63;40.46;97947.69;7381386;19;20397;-79
2023/06/08 11:51:49;;;;;;;;;;;;;;;25.52;41.23;97940.63;7381169;19;19911;-78
2023/06/08 11:54:16;;;;;;;;;;;;;;;25.52;40.35;97937.09;7377510;19;20427;-78
2023/06/08 11:56:45;;;;;;;;;;;;;;;25.59;38.37;97940.34;7379467;19;19951;-78
2023/06/08 11:59:15;;;;;;;;;;;;;;;25.69;38.29;97935.00;7380964;19;19921;-77
2023/06/08 12:01:55;;;;;;;;;;;;;;;25.89;36.93;97931.59;7374232;19;19910;-79
2023/06/08 12:04:28;;;;;;;;;;;;;;;25.80;39.47;97922.28;7380288;19;19919;-81
2023/06/08 12:06:55;;;;;;;;;;;;;;;25.42;40.47;97924.31;7385261;19;19915;-79
2023/06/08 12:09:21;;;;;;;;;;;;;;;25.11;40.51;97917.88;7381366;19;19937;-81
2023/06/08 12:11:48;;;;;;;;;;;;;;;25.46;42.18;97924.59;7377413;19;19929;-81
2023/06/08 12:14:15;;;;;;;;;;;;;;;25.42;41.09;97931.63;7370877;19;19926;-79
2023/06/08 12:16:42;;;;;;;;;;;;;;;25.29;41.78;97925.59;7380433;19;19991;-80
2023/06/08 12:19:09;;;;;;;;;;;;;;;25.34;43.70;97922.91;7382227;19;19915;-84
2023/06/08 12:21:39;;;;;;;;;;;;;;;25.30;42.42;97926.41;7380705;19;20344;-78
2023/06/08 12:24:06;;;;;;;;;;;;;;;25.37;41.87;97919.66;7383985;19;20611;-81
2023/06/08 12:26:32;;;;;;;;;;;;;;;25.31;38.23;97922.63;7382401;19;19982;-78
2023/06/08 12:29:04;;;;;;;;;;;;;;;25.21;38.89;97936.91;7384026;19;19914;-82
2023/06/08 12:31:31;;;;;;;;;;;;;;;25.11;38.95;97944.94;7376877;19;19910;-80
2023/06/08 12:33:58;;;;;;;;;;;;;;;24.91;37.50;97949.13;7381077;19;19918;-80
2023/06/08 12:36:25;;;;;;;;;;;;;;;24.76;38.96;97954.41;7382083;19;19911;-78
2023/06/08 12:38:51;;;;;;;;;;;;;;;24.38;37.99;97964.31;7382742;19;19923;-79
2023/06/08 12:41:18;;;;;;;;;;;;;;;24.01;37.39;97970.41;7378125;19;19926;-76
2023/06/08 12:43:47;;;;;;;;;;;;;;;23.60;38.98;97971.75;7384610;19;19923;-79
2023/06/08 12:46:18;;;;;;;;;;;;;;;23.02;45.99;97973.88;7381344;19;19915;-79
2023/06/08 12:48:47;;;;;;;;;;;;;;;22.66;49.58;97973.25;7384195;19;19949;-83
2023/06/08 12:51:16;;;;;;;;;;;;;;;22.24;54.49;97983.53;7393562;19;19922;-80
2023/06/08 12:53:44;;;;;;;;;;;;;;;21.95;57.81;97991.56;7389463;19;21945;-78
2023/06/08 12:56:11;;;;;;;;;;;;;;;21.50;62.04;97994.09;7385080;19;19925;-82